Time;durP1;ratioP1;P1;durP2;ratioP2;P2;SDS_P1;SDS_P2;PMS_P1;PMS_P2;Temp;Humidity;BMP_temperature;BMP_pressure;BME280_temperature;BME280_humidity;BME280_pressure;Samples;Min_cycle;Max_cycle;Signal;HPM_P1;HPM_P2
2020/10/09 00:01:25;;;;;;;5.9;1.5;;;;;;;;;;;;;
2020/10/09 00:03:47;;;;;;;1.6;0.8;;;;;;;;;;;;;
2020/10/09 00:06:12;;;;;;;2.6;0.8;;;;;;;;;;;;;
2020/10/09 00:08:38;;;;;;;1;0.7;;;;;;;;;;;;;
2020/10/09 00:11:02;;;;;;;1.9;0.7;;;;;;;;;;;;;
2020/10/09 00:13:34;;;;;;;6;0.6;;;;;;;;;;;;;
2020/10/09 00:15:53;;;;;;;1.4;0.7;;;;;;;;;;;;;
2020/10/09 00:18:19;;;;;;;2.8;0.6;;;;;;;;;;;;;
2020/10/09 00:20:44;;;;;;;0.7;0.7;;;;;;;;;;;;;
2020/10/09 00:23:12;;;;;;;1.6;0.8;;;;;;;;;;;;;
2020/10/09 00:25:35;;;;;;;2.3;0.9;;;;;;;;;;;;;
2020/10/09 00:28:00;;;;;;;1;0.5;;;;;;;;;;;;;
2020/10/09 00:30:25;;;;;;;1.5;0.9;;;;;;;;;;;;;
2020/10/09 00:32:50;;;;;;;2.1;0.7;;;;;;;;;;;;;
2020/10/09 00:35:17;;;;;;;3;0.7;;;;;;;;;;;;;
2020/10/09 00:37:42;;;;;;;1.4;0.7;;;;;;;;;;;;;
2020/10/09 00:40:07;;;;;;;0.8;0.6;;;;;;;;;;;;;
2020/10/09 00:42:33;;;;;;;4.1;0.8;;;;;;;;;;;;;
2020/10/09 00:44:58;;;;;;;2;1.2;;;;;;;;;;;;;
2020/10/09 00:47:23;;;;;;;1.9;1;;;;;;;;;;;;;
2020/10/09 00:49:48;;;;;;;0.5;0.5;;;;;;;;;;;;;
2020/10/09 00:52:13;;;;;;;1.2;0.7;;;;;;;;;;;;;
2020/10/09 00:54:38;;;;;;;4.5;0.7;;;;;;;;;;;;;
2020/10/09 00:57:03;;;;;;;0.9;0.6;;;;;;;;;;;;;
2020/10/09 00:59:28;;;;;;;1.5;0.8;;;;;;;;;;;;;
2020/10/09 01:01:59;;;;;;;5.2;0.8;;;;;;;;;;;;;
2020/10/09 01:04:21;;;;;;;1.9;0.9;;;;;;;;;;;;;
2020/10/09 01:06:44;;;;;;;1;0.7;;;;;;;;;;;;;
2020/10/09 01:09:18;;;;;;;1.7;0.6;;;;;;;;;;;;;
2020/10/09 01:11:35;;;;;;;1.7;0.6;;;;;;;;;;;;;
2020/10/09 01:14:00;;;;;;;1.8;0.7;;;;;;;;;;;;;
2020/10/09 01:16:27;;;;;;;1.1;0.7;;;;;;;;;;;;;
2020/10/09 01:18:51;;;;;;;0.9;0.6;;;;;;;;;;;;;
2020/10/09 01:21:16;;;;;;;1.1;0.8;;;;;;;;;;;;;
2020/10/09 01:23:41;;;;;;;1.6;0.6;;;;;;;;;;;;;
2020/10/09 01:26:06;;;;;;;1.2;0.7;;;;;;;;;;;;;
2020/10/09 01:28:31;;;;;;;1;0.6;;;;;;;;;;;;;
2020/10/09 01:30:57;;;;;;;1.5;0.8;;;;;;;;;;;;;
2020/10/09 01:33:22;;;;;;;1.5;0.8;;;;;;;;;;;;;
2020/10/09 01:35:47;;;;;;;1.8;0.6;;;;;;;;;;;;;
2020/10/09 01:38:12;;;;;;;1.4;0.8;;;;;;;;;;;;;
2020/10/09 01:40:39;;;;;;;0.4;0.4;;;;;;;;;;;;;
2020/10/09 01:43:03;;;;;;;0.6;0.5;;;;;;;;;;;;;
2020/10/09 01:45:28;;;;;;;0.8;0.6;;;;;;;;;;;;;
2020/10/09 01:47:54;;;;;;;0.6;0.6;;;;;;;;;;;;;
2020/10/09 01:50:19;;;;;;;1.3;0.6;;;;;;;;;;;;;
2020/10/09 01:52:44;;;;;;;1;0.6;;;;;;;;;;;;;
2020/10/09 01:55:09;;;;;;;1.6;0.6;;;;;;;;;;;;;
2020/10/09 01:57:34;;;;;;;1.9;0.7;;;;;;;;;;;;;
2020/10/09 01:59:59;;;;;;;1.8;0.8;;;;;;;;;;;;;
2020/10/09 02:02:24;;;;;;;0.6;0.5;;;;;;;;;;;;;
2020/10/09 02:04:49;;;;;;;0.5;0.4;;;;;;;;;;;;;
2020/10/09 02:07:15;;;;;;;0.6;0.5;;;;;;;;;;;;;
2020/10/09 02:09:40;;;;;;;1.3;0.8;;;;;;;;;;;;;
2020/10/09 02:12:06;;;;;;;1;0.5;;;;;;;;;;;;;
2020/10/09 02:14:31;;;;;;;1.1;0.7;;;;;;;;;;;;;
2020/10/09 02:16:56;;;;;;;0.9;0.7;;;;;;;;;;;;;
2020/10/09 02:19:21;;;;;;;0.5;0.5;;;;;;;;;;;;;
2020/10/09 02:21:47;;;;;;;1.2;0.7;;;;;;;;;;;;;
2020/10/09 02:24:14;;;;;;;3.1;0.9;;;;;;;;;;;;;
2020/10/09 02:26:38;;;;;;;1.7;1;;;;;;;;;;;;;
2020/10/09 02:29:03;;;;;;;1.7;0.9;;;;;;;;;;;;;
2020/10/09 02:31:29;;;;;;;1.1;0.8;;;;;;;;;;;;;
2020/10/09 02:33:57;;;;;;;2.2;0.9;;;;;;;;;;;;;
2020/10/09 02:36:20;;;;;;;2.2;0.9;;;;;;;;;;;;;
2020/10/09 02:38:47;;;;;;;1.9;1;;;;;;;;;;;;;
2020/10/09 02:41:11;;;;;;;0.8;0.6;;;;;;;;;;;;;
2020/10/09 02:43:36;;;;;;;1.1;0.7;;;;;;;;;;;;;
2020/10/09 02:46:01;;;;;;;1.7;0.6;;;;;;;;;;;;;
2020/10/09 02:48:26;;;;;;;1.4;0.7;;;;;;;;;;;;;
2020/10/09 02:50:51;;;;;;;0.7;0.6;;;;;;;;;;;;;
2020/10/09 02:53:18;;;;;;;1.6;0.5;;;;;;;;;;;;;
2020/10/09 02:55:42;;;;;;;2.6;1.1;;;;;;;;;;;;;
2020/10/09 02:58:08;;;;;;;3.8;1.3;;;;;;;;;;;;;
2020/10/09 03:00:33;;;;;;;1.5;0.8;;;;;;;;;;;;;
2020/10/09 03:02:58;;;;;;;2;0.8;;;;;;;;;;;;;
2020/10/09 03:05:24;;;;;;;1.9;0.8;;;;;;;;;;;;;
2020/10/09 03:07:48;;;;;;;2;0.7;;;;;;;;;;;;;
2020/10/09 03:10:14;;;;;;;0.4;0.4;;;;;;;;;;;;;
2020/10/09 03:12:40;;;;;;;0.9;0.7;;;;;;;;;;;;;
2020/10/09 03:15:05;;;;;;;2.3;0.8;;;;;;;;;;;;;
2020/10/09 03:17:30;;;;;;;2;0.5;;;;;;;;;;;;;
2020/10/09 03:19:56;;;;;;;1.1;0.8;;;;;;;;;;;;;
2020/10/09 03:22:21;;;;;;;1.8;0.8;;;;;;;;;;;;;
2020/10/09 03:24:46;;;;;;;2.6;0.8;;;;;;;;;;;;;
2020/10/09 03:27:13;;;;;;;1.8;0.8;;;;;;;;;;;;;
2020/10/09 03:29:37;;;;;;;1.9;0.8;;;;;;;;;;;;;
2020/10/09 03:32:03;;;;;;;2.3;0.9;;;;;;;;;;;;;
2020/10/09 03:34:28;;;;;;;4.2;0.9;;;;;;;;;;;;;
2020/10/09 03:36:56;;;;;;;1;0.6;;;;;;;;;;;;;
2020/10/09 03:39:19;;;;;;;0.6;0.6;;;;;;;;;;;;;
2020/10/09 03:41:45;;;;;;;1.5;0.9;;;;;;;;;;;;;
2020/10/09 03:44:10;;;;;;;1;0.8;;;;;;;;;;;;;
2020/10/09 03:46:38;;;;;;;1.6;0.9;;;;;;;;;;;;;
2020/10/09 03:49:02;;;;;;;2;0.9;;;;;;;;;;;;;
2020/10/09 03:51:27;;;;;;;0.9;0.7;;;;;;;;;;;;;
2020/10/09 03:53:58;;;;;;;4.1;1.3;;;;;;;;;;;;;
2020/10/09 03:56:18;;;;;;;1.4;0.8;;;;;;;;;;;;;
2020/10/09 03:58:43;;;;;;;2.9;0.9;;;;;;;;;;;;;
2020/10/09 04:02:34;;;;;;;1.3;0.9;;;;;;;8.92;87.82715;943.2605;;;;
2020/10/09 04:05:00;;;;;;;1.7;0.8;;;;;;;9.02;86.76465;943.2273;;;;
2020/10/09 04:07:22;;;;;;;1.3;0.7;;;;;;;9.13;86.40137;943.3516;;;;
2020/10/09 04:09:48;;;;;;;1.8;1;;;;;;;9.16;85.45117;943.3362;;;;
2020/10/09 04:12:16;;;;;;;1.4;0.9;;;;;;;9.11;85.66797;943.3525;;;;
2020/10/09 04:14:38;;;;;;;1.1;0.8;;;;;;;9.07;86.09277;943.3223;;;;
2020/10/09 04:17:03;;;;;;;2.7;1.3;;;;;;;9.07;85.87891;943.3994;;;;
2020/10/09 04:19:37;;;;;;;2.9;1.1;;;;;;;9.1;85.30176;943.4111;;;;
2020/10/09 04:22:14;;;;;;;1.5;0.8;;;;;;;9.11;84.86133;943.4623;;;;
2020/10/09 04:24:18;;;;;;;1.9;1.1;;;;;;;9.14;84.48926;943.4763;;;;
2020/10/09 04:26:44;;;;;;;1.8;1.1;;;;;;;9.1;84.89355;943.4119;;;;
2020/10/09 04:29:09;;;;;;;2.5;1.4;;;;;;;9.07;84.93457;943.4169;;;;
2020/10/09 04:31:34;;;;;;;3.6;1.2;;;;;;;9.02;85.11719;943.3633;;;;
2020/10/09 04:34:02;;;;;;;9.8;1.4;;;;;;;8.95;85.38672;943.3286;;;;
2020/10/09 04:36:27;;;;;;;1.4;0.9;;;;;;;8.54;86.84082;943.3119;;;;
2020/10/09 04:38:52;;;;;;;7.4;1.1;;;;;;;8.47;87.51758;943.3337;;;;
2020/10/09 04:41:17;;;;;;;5.1;1;;;;;;;8.44;87.87598;943.3211;;;;
2020/10/09 04:43:43;;;;;;;2.2;1.1;;;;;;;8.47;88.06348;943.3147;;;;
2020/10/09 04:46:09;;;;;;;6.4;1;;;;;;;8.47;87.84668;943.3101;;;;
2020/10/09 04:48:36;;;;;;;1.5;0.9;;;;;;;8.45;87.79785;943.2967;;;;
2020/10/09 04:51:10;;;;;;;1.7;1.2;;;;;;;8.42;87.78125;943.3406;;;;
2020/10/09 04:53:35;;;;;;;1.1;1;;;;;;;8.36;88.24707;943.3633;;;;
2020/10/09 04:56:04;;;;;;;2.5;1.1;;;;;;;8.3;88.93652;943.3558;;;;
2020/10/09 04:58:29;;;;;;;1.4;0.8;;;;;;;8.34;88.96875;943.3245;;;;
2020/10/09 05:00:56;;;;;;;3.1;1.1;;;;;;;8.33;89.77344;943.2845;;;;
2020/10/09 05:03:19;;;;;;;1.3;0.8;;;;;;;8.27;89.89648;943.3002;;;;
2020/10/09 05:05:45;;;;;;;1;0.7;;;;;;;8.4;89.75195;943.2897;;;;
2020/10/09 05:08:11;;;;;;;9;1.2;;;;;;;8.42;89.15625;943.2405;;;;
2020/10/09 05:10:36;;;;;;;1.9;0.8;;;;;;;8.47;88.91699;943.1887;;;;
2020/10/09 05:13:03;;;;;;;2.8;0.9;;;;;;;8.51;88.10645;943.2341;;;;
2020/10/09 05:15:28;;;;;;;1.8;0.9;;;;;;;8.3;88.65234;943.2026;;;;
2020/10/09 05:17:57;;;;;;;1.5;0.7;;;;;;;8.22;89.23926;943.258;;;;
2020/10/09 05:20:20;;;;;;;1;0.6;;;;;;;8.29;89.12988;943.1891;;;;
2020/10/09 05:22:45;;;;;;;1;0.7;;;;;;;8.26;89.12402;943.1201;;;;
2020/10/09 05:25:15;;;;;;;1.6;0.9;;;;;;;8.33;88.69434;943.1956;;;;
2020/10/09 05:27:44;;;;;;;3.6;1.3;;;;;;;8.24;89.62988;943.1085;;;;
2020/10/09 05:30:06;;;;;;;3.4;1.5;;;;;;;8.33;89.06934;943.1392;;;;
2020/10/09 05:32:33;;;;;;;6.4;1.6;;;;;;;8.42;88.37207;943.1738;;;;
2020/10/09 05:34:58;;;;;;;4.3;1.9;;;;;;;8.4;88.3457;943.2318;;;;
2020/10/09 05:37:24;;;;;;;1.9;1.4;;;;;;;8.39;88.40039;943.2648;;;;
2020/10/09 05:39:51;;;;;;;3;1.3;;;;;;;8.18;89.29883;943.2992;;;;
2020/10/09 05:42:16;;;;;;;5.4;1.8;;;;;;;8.28;89.2959;943.2887;;;;
2020/10/09 05:44:42;;;;;;;3.8;1.7;;;;;;;8.3;89.25488;943.3074;;;;
2020/10/09 05:47:07;;;;;;;9.7;2.1;;;;;;;8.39;88.36621;943.3132;;;;
2020/10/09 05:49:34;;;;;;;2.1;1.7;;;;;;;8.43;87.94238;943.3067;;;;
2020/10/09 05:52:30;;;;;;;7.1;2;;;;;;;8.48;87.56641;943.2326;;;;
2020/10/09 05:54:55;;;;;;;2.5;1.4;;;;;;;8.44;87.79785;943.2943;;;;
2020/10/09 05:57:21;;;;;;;6.5;1.4;;;;;;;8.44;87.81836;943.2933;;;;
2020/10/09 05:59:47;;;;;;;3;1.6;;;;;;;8.52;87.45996;943.2779;;;;
2020/10/09 06:02:12;;;;;;;5.4;1.9;;;;;;;8.56;87.10547;943.2933;;;;
2020/10/09 06:04:38;;;;;;;14.8;3.5;;;;;;;8.53;87.31445;943.252;;;;
2020/10/09 06:07:03;;;;;;;4;2.5;;;;;;;8.45;87.46875;943.1912;;;;
2020/10/09 06:09:29;;;;;;;3.9;2.2;;;;;;;8.28;88.09375;943.1254;;;;
2020/10/09 06:11:55;;;;;;;15.4;1.8;;;;;;;8.28;88.32129;943.1016;;;;
2020/10/09 06:14:21;;;;;;;5.5;1.9;;;;;;;8.37;88.40625;943.0095;;;;
2020/10/09 06:16:46;;;;;;;4.3;1.7;;;;;;;8.33;88.5332;943.0876;;;;
2020/10/09 06:19:11;;;;;;;3.7;1.4;;;;;;;8.2;89.51758;943.0904;;;;
2020/10/09 06:21:36;;;;;;;5.7;0.9;;;;;;;8.09;90.80273;943.106;;;;
2020/10/09 06:24:01;;;;;;;1.9;1;;;;;;;8.15;91.29102;943.139;;;;
2020/10/09 06:26:27;;;;;;;1.5;0.8;;;;;;;8.34;91.02441;943.0779;;;;
2020/10/09 06:28:52;;;;;;;2.6;1.2;;;;;;;8.52;89.99512;943.1851;;;;
2020/10/09 06:31:17;;;;;;;1.7;1;;;;;;;8.55;89.4209;943.1906;;;;
2020/10/09 06:33:43;;;;;;;2.7;1.2;;;;;;;8.49;89.77344;943.1621;;;;
2020/10/09 06:36:08;;;;;;;5.9;1.5;;;;;;;8.47;89.87207;943.1682;;;;
2020/10/09 06:38:37;;;;;;;1.7;1.3;;;;;;;8.58;89.72363;943.1534;;;;
2020/10/09 06:41:08;;;;;;;1.8;1;;;;;;;8.72;89.52441;943.1236;;;;
2020/10/09 06:43:34;;;;;;;3.4;1.7;;;;;;;8.83;89.04688;943.1019;;;;
2020/10/09 06:45:58;;;;;;;3.4;1.2;;;;;;;8.95;88.92285;943.1483;;;;
2020/10/09 06:48:26;;;;;;;2.1;0.9;;;;;;;9.02;89.06543;943.1487;;;;
2020/10/09 06:50:51;;;;;;;3.4;1;;;;;;;9.16;88.92188;943.1367;;;;
2020/10/09 06:53:17;;;;;;;1;0.8;;;;;;;9.33;88.5459;943.1264;;;;
2020/10/09 06:55:44;;;;;;;1;0.7;;;;;;;9.46;88.1748;943.0787;;;;
2020/10/09 06:58:12;;;;;;;1.3;1;;;;;;;9.62;87.2041;943.0695;;;;
2020/10/09 07:00:41;;;;;;;2.1;0.9;;;;;;;9.91;86.71875;943.0042;;;;
2020/10/09 07:03:05;;;;;;;5.8;1.7;;;;;;;10.15;85.52051;942.9858;;;;
2020/10/09 07:05:27;;;;;;;1.5;1.1;;;;;;;10.28;84.9541;942.9794;;;;
2020/10/09 07:07:54;;;;;;;2.7;1.3;;;;;;;10.72;84.34473;942.9199;;;;
2020/10/09 07:10:19;;;;;;;2;1.1;;;;;;;10.97;82.40527;942.928;;;;
2020/10/09 07:12:44;;;;;;;1.2;0.8;;;;;;;11.23;80.96777;942.9053;;;;
2020/10/09 07:15:09;;;;;;;1.4;1.1;;;;;;;11.53;80.00391;942.8625;;;;
2020/10/09 07:17:37;;;;;;;0.9;0.7;;;;;;;11.48;79.65234;942.8547;;;;
2020/10/09 07:20:02;;;;;;;2.9;1.3;;;;;;;11.52;79.33984;942.7787;;;;
2020/10/09 07:22:30;;;;;;;3.8;1.3;;;;;;;11.91;78.62988;942.7932;;;;
2020/10/09 07:24:54;;;;;;;1.5;1;;;;;;;12.21;77.5625;942.7711;;;;
2020/10/09 07:27:21;;;;;;;3.1;1;;;;;;;12.43;76.90332;942.8625;;;;
2020/10/09 07:29:49;;;;;;;2.7;1.2;;;;;;;12.59;75.90918;942.8633;;;;
2020/10/09 07:32:14;;;;;;;3;1.1;;;;;;;12.84;75.75684;942.8508;;;;
2020/10/09 07:34:39;;;;;;;1;0.8;;;;;;;13.07;74.51172;942.8624;;;;
2020/10/09 07:37:06;;;;;;;1.6;0.7;;;;;;;13.13;72.41895;942.7572;;;;
2020/10/09 07:39:31;;;;;;;2.5;1.2;;;;;;;13.14;70.6748;942.8276;;;;
2020/10/09 07:41:59;;;;;;;0.5;0.4;;;;;;;13.5;69.32031;942.842;;;;
2020/10/09 07:44:24;;;;;;;2.1;0.9;;;;;;;14.2;69.07422;942.7833;;;;
2020/10/09 07:46:51;;;;;;;1.6;0.8;;;;;;;14.71;65.29297;942.7886;;;;
2020/10/09 07:49:16;;;;;;;4.4;0.7;;;;;;;14.87;64.07129;942.7456;;;;
2020/10/09 07:51:42;;;;;;;0.7;0.6;;;;;;;16.23;60.79102;942.7084;;;;
2020/10/09 07:54:12;;;;;;;0.6;0.4;;;;;;;17.96;55.43164;942.6717;;;;
2020/10/09 07:56:37;;;;;;;1.4;0.5;;;;;;;18.63;51.74805;942.7699;;;;
2020/10/09 07:59:03;;;;;;;0.5;0.4;;;;;;;18.96;50.5752;942.6475;;;;
2020/10/09 08:01:35;;;;;;;0.7;0.5;;;;;;;18.79;52.81348;942.7369;;;;
2020/10/09 08:04:03;;;;;;;1.6;0.4;;;;;;;18.31;52.36133;942.7589;;;;
2020/10/09 08:06:28;;;;;;;1.4;0.6;;;;;;;17.94;53.97754;942.6978;;;;
2020/10/09 08:08:53;;;;;;;1.5;0.8;;;;;;;17.84;55.35938;942.6795;;;;
2020/10/09 08:11:18;;;;;;;0.2;0.2;;;;;;;18.05;53.88672;942.7103;;;;
2020/10/09 08:13:45;;;;;;;4.6;0.7;;;;;;;19.09;50.78906;942.6893;;;;
2020/10/09 08:16:18;;;;;;;1.9;0.7;;;;;;;18.77;50.7627;942.7874;;;;
2020/10/09 08:45:40;;;;;;;0.7;0.6;;;;;;;21.11;45.71094;942.5994;;;;
2020/10/09 08:48:06;;;;;;;1.5;0.5;;;;;;;20.54;48.29297;942.6683;;;;
2020/10/09 08:50:43;;;;;;;0.2;0.2;;;;;;;19.74;47.09766;942.6677;;;;
2020/10/09 08:55:16;;;;;;;1.1;0.5;;;;;;;18.8;48.89258;942.6287;;;;
2020/10/09 08:57:36;;;;;;;1.4;0.4;;;;;;;18.12;48.85254;942.6194;;;;
2020/10/09 09:00:09;;;;;;;0.7;0.6;;;;;;;18.31;51.16211;942.5598;;;;
2020/10/09 09:02:36;;;;;;;1.5;0.6;;;;;;;18.53;49.84082;942.5435;;;;
2020/10/09 09:05:04;;;;;;;0.3;0.3;;;;;;;18.53;49.01563;942.5966;;;;
2020/10/09 09:07:28;;;;;;;1.2;0.6;;;;;;;18.29;50.08008;942.5891;;;;
2020/10/09 09:09:56;;;;;;;1.1;0.3;;;;;;;18.18;51.0791;942.5652;;;;
2020/10/09 09:12:27;;;;;;;0.2;0.2;;;;;;;18.45;49.63379;942.5373;;;;
2020/10/09 09:14:45;;;;;;;0.5;0.5;;;;;;;18.87;50.29785;942.515;;;;
2020/10/09 09:17:13;;;;;;;0.8;0.4;;;;;;;18.81;48.18457;942.5641;;;;
2020/10/09 09:19:38;;;;;;;1;0.7;;;;;;;18.82;49.81445;942.5042;;;;
2020/10/09 09:22:03;;;;;;;1.3;0.6;;;;;;;18.54;49.44629;942.5149;;;;
2020/10/09 09:24:28;;;;;;;0.4;0.3;;;;;;;18.68;50.40527;942.6006;;;;
2020/10/09 09:26:54;;;;;;;0.5;0.5;;;;;;;18.65;51.91309;942.5988;;;;
2020/10/09 09:29:23;;;;;;;1.6;0.6;;;;;;;17.99;55.74902;942.5206;;;;
2020/10/09 09:31:46;;;;;;;0.4;0.3;;;;;;;18.14;52.82813;942.5433;;;;
2020/10/09 09:34:15;;;;;;;0.9;0.6;;;;;;;18.16;51.56445;942.5253;;;;
2020/10/09 09:36:50;;;;;;;2.6;0.9;;;;;;;18.49;51.83691;942.6172;;;;
2020/10/09 09:40:34;;;;;;;2;0.8;;;;;;;18.58;53.46289;942.6;;;;
2020/10/09 09:42:48;;;;;;;1.5;0.6;;;;;;;18.48;54.42773;942.4966;;;;
2020/10/09 09:45:15;;;;;;;1;0.5;;;;;;;18.45;54.01758;942.4727;;;;
2020/10/09 09:47:42;;;;;;;0.9;0.5;;;;;;;18.21;55.00977;942.419;;;;
2020/10/09 09:50:07;;;;;;;8;0.7;;;;;;;18.49;51.94141;942.4479;;;;
2020/10/09 09:52:39;;;;;;;1;0.7;;;;;;;18.77;55.08008;942.3951;;;;
2020/10/09 09:55:07;;;;;;;1.2;0.9;;;;;;;18.67;54.78809;942.3967;;;;
2020/10/09 09:57:25;;;;;;;1.2;0.4;;;;;;;18.89;54.39648;942.2676;;;;
2020/10/09 09:59:50;;;;;;;0.4;0.4;;;;;;;18.89;55.0127;942.304;;;;
2020/10/09 10:02:19;;;;;;;0.8;0.6;;;;;;;18.81;53.68945;942.3058;;;;
2020/10/09 10:05:06;;;;;;;2.1;0.5;;;;;;;18.96;53.55566;942.3328;;;;
2020/10/09 10:07:12;;;;;;;0.9;0.6;;;;;;;19.12;54.06445;942.3119;;;;
2020/10/09 10:12:01;;;;;;;1.7;0.5;;;;;;;18.71;52.98926;942.2734;;;;
2020/10/09 10:14:26;;;;;;;3;0.6;;;;;;;18.65;54.03027;942.243;;;;
2020/10/09 10:16:57;;;;;;;1.1;0.7;;;;;;;18.88;51.55566;942.188;;;;
2020/10/09 10:19:34;;;;;;;1;0.6;;;;;;;19.12;50.50098;942.1261;;;;
2020/10/09 10:21:52;;;;;;;1.2;0.4;;;;;;;18.9;49.84668;942.1345;;;;
2020/10/09 10:24:19;;;;;;;0.4;0.4;;;;;;;19.1;49.70605;942.0587;;;;
2020/10/09 10:26:42;;;;;;;0.4;0.3;;;;;;;18.95;49.63184;942.1028;;;;
2020/10/09 10:29:25;;;;;;;0.9;0.3;;;;;;;19.1;46.9707;942.0739;;;;
2020/10/09 10:31:35;;;;;;;0.5;0.4;;;;;;;19.17;49.21387;942.0994;;;;
2020/10/09 10:34:10;;;;;;;0.3;0.2;;;;;;;19.22;50.36133;942.0666;;;;
2020/10/09 10:36:34;;;;;;;0.8;0.4;;;;;;;19.19;50.98633;942.0507;;;;
2020/10/09 10:39:18;;;;;;;1.7;0.9;;;;;;;18.93;50.13086;942.0603;;;;
2020/10/09 10:41:25;;;;;;;0.2;0.2;;;;;;;19.07;52.11426;942.0187;;;;
2020/10/09 10:44:15;;;;;;;1.3;0.5;;;;;;;19.24;50.08398;942.0396;;;;
2020/10/09 10:46:41;;;;;;;0.9;0.5;;;;;;;19.39;49.92578;942.0812;;;;
2020/10/09 10:53:59;;;;;;;0.4;0.4;;;;;;;19.53;50.46582;941.9973;;;;
2020/10/09 10:56:23;;;;;;;0.6;0.2;;;;;;;19.64;49.83691;941.962;;;;
2020/10/09 10:58:47;;;;;;;0.7;0.4;;;;;;;19.63;50.6875;941.9661;;;;
2020/10/09 11:01:33;;;;;;;0.3;0.3;;;;;;;19.72;49.21777;941.9846;;;;
2020/10/09 11:03:58;;;;;;;0.9;0.7;;;;;;;19.65;50.49219;941.9625;;;;
2020/10/09 11:06:07;;;;;;;1.1;0.4;;;;;;;19.85;49.33691;941.9207;;;;
2020/10/09 11:08:38;;;;;;;0.9;0.3;;;;;;;20.31;50.1123;941.863;;;;
2020/10/09 11:11:10;;;;;;;1.8;0.4;;;;;;;20.73;49.2959;941.9172;;;;
2020/10/09 11:13:23;;;;;;;0.4;0.4;;;;;;;20.94;49.86719;941.9133;;;;
2020/10/09 11:15:52;;;;;;;1.2;0.3;;;;;;;21.08;49.39258;941.868;;;;
2020/10/09 11:18:55;;;;;;;0.8;0.5;;;;;;;20.92;49.90137;941.8975;;;;
2020/10/09 11:23:04;;;;;;;1.6;0.5;;;;;;;20.56;51.2959;941.8167;;;;
2020/10/09 11:23:56;;;;;;;0.5;0.5;;;;;;;20.64;52.18164;941.7569;;;;
2020/10/09 11:26:14;;;;;;;0.4;0.4;;;;;;;20.64;50.42969;941.7318;;;;
2020/10/09 11:28:41;;;;;;;0.4;0.4;;;;;;;20.76;51.20215;941.6892;;;;
2020/10/09 11:31:08;;;;;;;0.2;0.2;;;;;;;20.71;51.61816;941.6038;;;;
2020/10/09 11:33:33;;;;;;;0.3;0.3;;;;;;;20.9;50.90332;941.5864;;;;
2020/10/09 11:36:01;;;;;;;0.6;0.3;;;;;;;21.09;51.38184;941.5779;;;;
2020/10/09 11:38:26;;;;;;;0.6;0.4;;;;;;;21.09;50.50391;941.6361;;;;
2020/10/09 11:44:16;;;;;;;0.9;0.5;;;;;;;21.75;48.24805;941.4866;;;;
2020/10/09 11:47:22;;;;;;;0.4;0.3;;;;;;;22.28;46.86328;941.5233;;;;
2020/10/09 11:48:21;;;;;;;1.4;0.4;;;;;;;22.53;44.47363;941.4653;;;;
2020/10/09 11:50:48;;;;;;;0.6;0.4;;;;;;;23.14;45.02734;941.4589;;;;
2020/10/09 11:53:12;;;;;;;0.6;0.2;;;;;;;23.28;45.18262;941.4761;;;;
2020/10/09 11:55:38;;;;;;;0.8;0.4;;;;;;;23.13;44.83789;941.3836;;;;
2020/10/09 11:58:02;;;;;;;0.3;0.3;;;;;;;23.01;45.63672;941.3833;;;;
2020/10/09 12:00:32;;;;;;;1.5;0.9;;;;;;;22.89;46.44629;941.2647;;;;
2020/10/09 12:02:55;;;;;;;0.4;0.3;;;;;;;22.29;46.97168;941.2906;;;;
2020/10/09 12:07:45;;;;;;;0.4;0.4;;;;;;;22.52;46.02051;941.3602;;;;
2020/10/09 12:10:13;;;;;;;0.9;0.7;;;;;;;23.44;43.50586;941.3773;;;;
2020/10/09 12:12:39;;;;;;;0.9;0.3;;;;;;;24.68;42.2002;941.361;;;;
2020/10/09 12:15:04;;;;;;;0.3;0.3;;;;;;;25.74;39.59375;941.3045;;;;
2020/10/09 12:17:29;;;;;;;1.1;0.5;;;;;;;26.58;38.06934;941.3351;;;;
2020/10/09 12:20:32;;;;;;;1.6;0.6;;;;;;;26.88;37.14648;941.212;;;;
2020/10/09 12:22:24;;;;;;;0.5;0.4;;;;;;;27.92;35.74805;941.1278;;;;
2020/10/09 12:24:50;;;;;;;0.4;0.3;;;;;;;27.74;34.95117;941.1058;;;;
2020/10/09 12:29:41;;;;;;;0.4;0.4;;;;;;;29.52;33.13379;941.0938;;;;
2020/10/09 12:32:10;;;;;;;0.9;0.6;;;;;;;30.64;30.81445;941.0403;;;;
2020/10/09 12:34:35;;;;;;;0.5;0.4;;;;;;;31.7;28.52734;940.9835;;;;
2020/10/09 12:37:05;;;;;;;0.9;0.3;;;;;;;32.77;28.1748;941.0637;;;;
2020/10/09 12:39:49;;;;;;;0.8;0.4;;;;;;;33.43;25.1377;941.0075;;;;
2020/10/09 12:41:54;;;;;;;0.7;0.3;;;;;;;33.61;25.88184;941.0259;;;;
2020/10/09 12:44:19;;;;;;;0.3;0.2;;;;;;;32.8;25.34375;941.0215;;;;
2020/10/09 12:46:44;;;;;;;1.1;0.4;;;;;;;33;26.01465;940.962;;;;
2020/10/09 12:49:13;;;;;;;0.3;0.2;;;;;;;33.1;25.97266;940.9448;;;;
2020/10/09 12:51:38;;;;;;;0.5;0.1;;;;;;;33.82;24.90723;940.9133;;;;
2020/10/09 12:54:12;;;;;;;0.4;0.3;;;;;;;33.88;25.42676;940.942;;;;
2020/10/09 12:58:54;;;;;;;1;0.4;;;;;;;31.28;27.11328;940.8842;;;;
2020/10/09 13:01:18;;;;;;;0.2;0.2;;;;;;;30.42;28.33984;940.8226;;;;
2020/10/09 13:03:44;;;;;;;1;0.3;;;;;;;29.85;28.67383;940.8351;;;;
2020/10/09 13:06:09;;;;;;;0.2;0.2;;;;;;;29.33;29.84375;940.7874;;;;
2020/10/09 13:08:34;;;;;;;1.7;0.4;;;;;;;29.53;31.32324;940.7878;;;;
2020/10/09 13:11:00;;;;;;;0.3;0.2;;;;;;;29.41;30.02734;940.7026;;;;
2020/10/09 13:13:33;;;;;;;0.3;0.3;;;;;;;28.36;31.38477;940.6633;;;;
2020/10/09 13:15:53;;;;;;;0.7;0.3;;;;;;;27.66;32.35645;940.665;;;;
2020/10/09 13:18:19;;;;;;;0.5;0.3;;;;;;;27.39;33.5;940.6144;;;;
2020/10/09 13:20:43;;;;;;;0.4;0.4;;;;;;;28.18;32.72656;940.6496;;;;
2020/10/09 13:23:13;;;;;;;0.3;0.3;;;;;;;29.42;30.09961;940.6248;;;;
2020/10/09 13:26:25;;;;;;;0.2;0.2;;;;;;;30.8;27.89648;940.6486;;;;
2020/10/09 13:28:08;;;;;;;0.4;0.3;;;;;;;32;25.8623;940.6;;;;
2020/10/09 13:30:37;;;;;;;13;0.7;;;;;;;31.8;25.73047;940.5999;;;;
2020/10/09 13:33:02;;;;;;;0.7;0.4;;;;;;;32.24;26.22363;940.5909;;;;
2020/10/09 13:35:34;;;;;;;0.4;0.3;;;;;;;33.88;24.28418;940.6203;;;;
2020/10/09 13:37:59;;;;;;;0.2;0.1;;;;;;;34.89;23.75879;940.5801;;;;
2020/10/09 13:40:24;;;;;;;1;0.2;;;;;;;35.9;22.78418;940.552;;;;
2020/10/09 13:42:53;;;;;;;0.7;0.5;;;;;;;36.44;21.78223;940.5309;;;;
2020/10/09 13:45:26;;;;;;;2.1;0.4;;;;;;;35.87;22.00977;940.4204;;;;
2020/10/09 13:47:53;;;;;;;0.7;0.4;;;;;;;36.56;21.92188;940.4868;;;;
2020/10/09 13:50:21;;;;;;;0.1;0.1;;;;;;;37.2;21.18848;940.4447;;;;
2020/10/09 13:52:44;;;;;;;0.2;0.2;;;;;;;37.36;21.28027;940.3794;;;;
2020/10/09 13:55:15;;;;;;;0.4;0.2;;;;;;;37.82;20.45215;940.365;;;;
2020/10/09 13:57:40;;;;;;;0.2;0.2;;;;;;;37.48;21.46777;940.3665;;;;
2020/10/09 14:00:05;;;;;;;0.2;0.2;;;;;;;37.87;21.30469;940.355;;;;
2020/10/09 14:02:30;;;;;;;0.3;0.3;;;;;;;37.87;21.38867;940.4098;;;;
2020/10/09 14:05:00;;;;;;;0.2;0.2;;;;;;;37.64;21.42676;940.435;;;;
2020/10/09 14:07:25;;;;;;;0.1;0.1;;;;;;;37.57;20.97461;940.4659;;;;
2020/10/09 14:09:50;;;;;;;0.3;0.1;;;;;;;37.35;20.8916;940.3685;;;;
2020/10/09 14:12:22;;;;;;;0.3;0.2;;;;;;;37.15;20.78613;940.3845;;;;
2020/10/09 14:14:40;;;;;;;0.5;0.4;;;;;;;36.35;21.93555;940.3596;;;;
2020/10/09 14:17:09;;;;;;;0.2;0.2;;;;;;;35.66;22.24121;940.3119;;;;
2020/10/09 14:19:34;;;;;;;0.4;0.3;;;;;;;35.06;22.73047;940.3647;;;;
2020/10/09 14:22:00;;;;;;;0.4;0.2;;;;;;;34.4;23.16699;940.3265;;;;
2020/10/09 14:24:24;;;;;;;0.5;0.2;;;;;;;33.86;24.33203;940.3653;;;;
2020/10/09 14:26:51;;;;;;;0.8;0.2;;;;;;;33.52;25.0459;940.3715;;;;
2020/10/09 14:29:16;;;;;;;0.4;0.2;;;;;;;33.33;25.66113;940.3616;;;;
2020/10/09 14:31:41;;;;;;;0.3;0.3;;;;;;;32.82;26.84473;940.41;;;;
2020/10/09 14:34:06;;;;;;;0.1;0.1;;;;;;;31.78;27.40625;940.3278;;;;
2020/10/09 14:36:31;;;;;;;0.2;0.2;;;;;;;29.77;30.50488;940.3489;;;;
2020/10/09 14:38:56;;;;;;;0.3;0.2;;;;;;;28.95;32.23535;940.3674;;;;
2020/10/09 14:41:21;;;;;;;0.3;0.3;;;;;;;28.24;33.76465;940.3995;;;;
2020/10/09 14:43:46;;;;;;;0.3;0.3;;;;;;;27.76;34.5957;940.392;;;;
2020/10/09 14:46:15;;;;;;;2.2;0.4;;;;;;;27.13;36.06543;940.3886;;;;
2020/10/09 14:48:40;;;;;;;0.2;0.2;;;;;;;27.23;36.70215;940.3535;;;;
2020/10/09 14:51:08;;;;;;;0.2;0.2;;;;;;;26.31;38.50879;940.3975;;;;
2020/10/09 14:53:33;;;;;;;0.6;0.3;;;;;;;25.43;40.28613;940.3741;;;;
2020/10/09 14:56:00;;;;;;;0.5;0.2;;;;;;;25.27;41.33398;940.3674;;;;
2020/10/09 14:58:25;;;;;;;0.9;0.3;;;;;;;25.53;40.24805;940.3348;;;;
2020/10/09 15:00:51;;;;;;;0.3;0.3;;;;;;;24.91;41.59668;940.3445;;;;
2020/10/09 15:03:16;;;;;;;1;0.5;;;;;;;24.62;42.60742;940.3975;;;;
2020/10/09 15:05:42;;;;;;;1.5;0.4;;;;;;;23.53;45.76074;940.4076;;;;
2020/10/09 15:08:07;;;;;;;4.4;0.5;;;;;;;23.18;46.18262;940.3508;;;;
2020/10/09 15:10:33;;;;;;;0.8;0.3;;;;;;;22.64;48.47363;940.4061;;;;
2020/10/09 15:12:58;;;;;;;1.1;0.5;;;;;;;21.93;49.94531;940.4055;;;;
2020/10/09 15:15:26;;;;;;;0.4;0.3;;;;;;;21.68;50.11426;940.3522;;;;
2020/10/09 15:17:55;;;;;;;0.5;0.4;;;;;;;21.56;50.14844;940.3983;;;;
2020/10/09 15:20:19;;;;;;;1.1;0.9;;;;;;;21.23;52.07715;940.43;;;;
2020/10/09 15:22:44;;;;;;;2.1;0.9;;;;;;;21.2;52.72754;940.3762;;;;
2020/10/09 15:25:09;;;;;;;1.2;0.5;;;;;;;21.09;53.32422;940.3525;;;;
2020/10/09 15:27:34;;;;;;;0.4;0.4;;;;;;;21.01;53.88672;940.3691;;;;
2020/10/09 15:30:00;;;;;;;0.9;0.8;;;;;;;20.78;54.5957;940.3878;;;;
2020/10/09 15:32:25;;;;;;;8.9;1.1;;;;;;;20.47;56.16895;940.4522;;;;
2020/10/09 15:34:50;;;;;;;0.8;0.7;;;;;;;20.16;57.40137;940.48;;;;
2020/10/09 15:37:15;;;;;;;3.5;1;;;;;;;20.2;56.90527;940.4815;;;;
2020/10/09 15:39:41;;;;;;;0.8;0.5;;;;;;;20.06;58.07715;940.5147;;;;
2020/10/09 15:42:06;;;;;;;4.6;0.5;;;;;;;20.09;57.50879;940.4608;;;;
2020/10/09 15:44:32;;;;;;;4.3;0.9;;;;;;;19.8;58.19434;940.4863;;;;
2020/10/09 15:46:58;;;;;;;1.8;1;;;;;;;19.79;59.2998;940.5035;;;;
2020/10/09 15:49:23;;;;;;;1.8;0.5;;;;;;;19.81;59.33789;940.4796;;;;
2020/10/09 15:51:48;;;;;;;1.1;0.4;;;;;;;19.78;59.80078;940.4947;;;;
2020/10/09 15:54:13;;;;;;;3.3;0.9;;;;;;;19.68;60.23047;940.5195;;;;
2020/10/09 15:56:41;;;;;;;2.6;1.3;;;;;;;19.65;60.44824;940.5259;;;;
2020/10/09 15:59:06;;;;;;;2.1;1;;;;;;;19.5;59.99609;940.548;;;;
2020/10/09 16:01:33;;;;;;;1.6;1;;;;;;;19.51;60.17188;940.6229;;;;
2020/10/09 16:04:00;;;;;;;2.8;1;;;;;;;19.33;61.27734;940.6336;;;;
2020/10/09 16:06:25;;;;;;;1.5;0.7;;;;;;;19.21;61.77246;940.576;;;;
2020/10/09 16:08:50;;;;;;;2.1;1.1;;;;;;;19.09;61.9209;940.5662;;;;
2020/10/09 16:11:16;;;;;;;2.8;1.5;;;;;;;19.01;62.17676;940.5545;;;;
2020/10/09 16:13:45;;;;;;;11.9;1.5;;;;;;;18.92;62.65332;940.6088;;;;
2020/10/09 16:16:14;;;;;;;4.6;1.3;;;;;;;18.59;63.89648;940.6422;;;;
2020/10/09 16:18:38;;;;;;;0.8;0.5;;;;;;;18.5;63.80176;940.6615;;;;
2020/10/09 16:21:04;;;;;;;1.4;0.9;;;;;;;18.38;64.06348;940.6777;;;;
2020/10/09 16:23:29;;;;;;;1.5;0.7;;;;;;;18.17;64.80078;940.6679;;;;